Normanna, Texas
Current Conditions -  °F | °C
As of 8:15 PM on Friday 28 Nov 2014 (Local Time) from KBEA Reporting Station
Clear Clear  
Wind Chill: 15°   Ceiling: Unl
Heat Index: 15°   Visibility: 10mi
Dew Point: 12°   Wind: 7mph
Humidity: 84%   Direction: 150°SSE
Pressure: 30.14"   Gusts: NA
Location:  28.53°N, 97.78°W
Report Text: KBEA 290215Z AUTO 15006KT 10SM CLR 15/12 A3014 RMK AO2 T01470120
Loading
Personal Weather Stations






























Interactive Weather Map New forecast layout! Learn more

10-Day Weather Forecast

Advertisements
Track Severe Weather on mobile